sensor_id;sensor_type;location;lat;lon;timestamp;P1;P2;P0
47081;PMS5003;33066;49.296;14.470;2023-03-20T00:00:53;62;51;
47081;PMS5003;33066;49.296;14.470;2023-03-20T00:03:18;62;50;
47081;PMS5003;33066;49.296;14.470;2023-03-20T00:05:43;61;54;
47081;PMS5003;33066;49.296;14.470;2023-03-20T00:08:09;52;44;
47081;PMS5003;33066;49.296;14.470;2023-03-20T00:10:35;44;43;
47081;PMS5003;33066;49.296;14.470;2023-03-20T00:12:59;55;45;
47081;PMS5003;33066;49.296;14.470;2023-03-20T00:15:26;62;54;
47081;PMS5003;33066;49.296;14.470;2023-03-20T00:17:49;55;46;
47081;PMS5003;33066;49.296;14.470;2023-03-20T00:20:15;50;47;
47081;PMS5003;33066;49.296;14.470;2023-03-20T00:22:41;51;47;
47081;PMS5003;33066;49.296;14.470;2023-03-20T00:25:06;55;48;
47081;PMS5003;33066;49.296;14.470;2023-03-20T00:27:31;52;47;
47081;PMS5003;33066;49.296;14.470;2023-03-20T00:29:56;55;51;
47081;PMS5003;33066;49.296;14.470;2023-03-20T00:32:22;56;47;
47081;PMS5003;33066;49.296;14.470;2023-03-20T00:34:47;46;46;
47081;PMS5003;33066;49.296;14.470;2023-03-20T00:37:13;54;45;
47081;PMS5003;33066;49.296;14.470;2023-03-20T00:39:39;55;48;
47081;PMS5003;33066;49.296;14.470;2023-03-20T00:42:04;45;38;
47081;PMS5003;33066;49.296;14.470;2023-03-20T00:44:31;50;44;
47081;PMS5003;33066;49.296;14.470;2023-03-20T00:46:56;61;47;
47081;PMS5003;33066;49.296;14.470;2023-03-20T00:49:21;57;50;
47081;PMS5003;33066;49.296;14.470;2023-03-20T00:51:46;50;40;
47081;PMS5003;33066;49.296;14.470;2023-03-20T00:54:11;51;41;
47081;PMS5003;33066;49.296;14.470;2023-03-20T00:56:39;44;36;
47081;PMS5003;33066;49.296;14.470;2023-03-20T00:59:02;49;41;
47081;PMS5003;33066;49.296;14.470;2023-03-20T01:01:27;54;45;
47081;PMS5003;33066;49.296;14.470;2023-03-20T01:03:53;52;46;
47081;PMS5003;33066;49.296;14.470;2023-03-20T01:06:18;55;43;
47081;PMS5003;33066;49.296;14.470;2023-03-20T01:08:43;58;48;
47081;PMS5003;33066;49.296;14.470;2023-03-20T01:11:10;50;43;
47081;PMS5003;33066;49.296;14.470;2023-03-20T01:13:34;51;47;
47081;PMS5003;33066;49.296;14.470;2023-03-20T01:16:00;51;39;
47081;PMS5003;33066;49.296;14.470;2023-03-20T01:18:25;54;42;
47081;PMS5003;33066;49.296;14.470;2023-03-20T01:20:51;48;44;
47081;PMS5003;33066;49.296;14.470;2023-03-20T01:23:16;46;38;
47081;PMS5003;33066;49.296;14.470;2023-03-20T01:25:41;55;45;
47081;PMS5003;33066;49.296;14.470;2023-03-20T01:28:12;59;56;
47081;PMS5003;33066;49.296;14.470;2023-03-20T01:30:32;59;51;
47081;PMS5003;33066;49.296;14.470;2023-03-20T01:32:58;62;51;
47081;PMS5003;33066;49.296;14.470;2023-03-20T01:35:24;50;42;
47081;PMS5003;33066;49.296;14.470;2023-03-20T01:37:50;44;39;
47081;PMS5003;33066;49.296;14.470;2023-03-20T01:40:22;58;42;
47081;PMS5003;33066;49.296;14.470;2023-03-20T01:42:39;48;42;
47081;PMS5003;33066;49.296;14.470;2023-03-20T01:45:09;43;35;
47081;PMS5003;33066;49.296;14.470;2023-03-20T01:47:30;43;39;
47081;PMS5003;33066;49.296;14.470;2023-03-20T01:52:22;50;41;
47081;PMS5003;33066;49.296;14.470;2023-03-20T01:54:47;54;48;
47081;PMS5003;33066;49.296;14.470;2023-03-20T01:57:14;55;43;
47081;PMS5003;33066;49.296;14.470;2023-03-20T01:59:40;54;48;
47081;PMS5003;33066;49.296;14.470;2023-03-20T02:02:05;71;57;
47081;PMS5003;33066;49.296;14.470;2023-03-20T02:04:30;49;43;
47081;PMS5003;33066;49.296;14.470;2023-03-20T02:06:55;49;47;
47081;PMS5003;33066;49.296;14.470;2023-03-20T02:09:20;69;61;
47081;PMS5003;33066;49.296;14.470;2023-03-20T02:11:46;65;56;
47081;PMS5003;33066;49.296;14.470;2023-03-20T02:14:12;62;56;
47081;PMS5003;33066;49.296;14.470;2023-03-20T02:16:37;54;53;
47081;PMS5003;33066;49.296;14.470;2023-03-20T02:19:02;64;52;
47081;PMS5003;33066;49.296;14.470;2023-03-20T02:23:59;66;54;
47081;PMS5003;33066;49.296;14.470;2023-03-20T02:26:27;55;49;
47081;PMS5003;33066;49.296;14.470;2023-03-20T02:31:15;61;52;
47081;PMS5003;33066;49.296;14.470;2023-03-20T02:33:41;50;44;
47081;PMS5003;33066;49.296;14.470;2023-03-20T02:38:32;64;53;
47081;PMS5003;33066;49.296;14.470;2023-03-20T02:40:52;53;46;
47081;PMS5003;33066;49.296;14.470;2023-03-20T02:43:18;54;49;
47081;PMS5003;33066;49.296;14.470;2023-03-20T02:45:42;50;48;
47081;PMS5003;33066;49.296;14.470;2023-03-20T02:48:10;68;54;
47081;PMS5003;33066;49.296;14.470;2023-03-20T02:50:35;64;50;
47081;PMS5003;33066;49.296;14.470;2023-03-20T02:53:01;58;50;
47081;PMS5003;33066;49.296;14.470;2023-03-20T02:55:25;58;48;
47081;PMS5003;33066;49.296;14.470;2023-03-20T02:57:51;50;45;
47081;PMS5003;33066;49.296;14.470;2023-03-20T03:00:17;47;45;
47081;PMS5003;33066;49.296;14.470;2023-03-20T03:02:42;63;55;
47081;PMS5003;33066;49.296;14.470;2023-03-20T03:05:07;65;57;
47081;PMS5003;33066;49.296;14.470;2023-03-20T03:07:31;59;55;
47081;PMS5003;33066;49.296;14.470;2023-03-20T03:09:58;52;41;
47081;PMS5003;33066;49.296;14.470;2023-03-20T03:12:22;58;50;
47081;PMS5003;33066;49.296;14.470;2023-03-20T03:14:48;53;47;
47081;PMS5003;33066;49.296;14.470;2023-03-20T03:17:14;52;43;
47081;PMS5003;33066;49.296;14.470;2023-03-20T03:19:39;56;49;
47081;PMS5003;33066;49.296;14.470;2023-03-20T03:22:04;47;41;
47081;PMS5003;33066;49.296;14.470;2023-03-20T03:24:31;48;42;
47081;PMS5003;33066;49.296;14.470;2023-03-20T03:26:55;50;46;
47081;PMS5003;33066;49.296;14.470;2023-03-20T03:29:21;52;43;
47081;PMS5003;33066;49.296;14.470;2023-03-20T03:31:46;49;43;
47081;PMS5003;33066;49.296;14.470;2023-03-20T03:34:14;53;42;
47081;PMS5003;33066;49.296;14.470;2023-03-20T03:36:39;40;38;
47081;PMS5003;33066;49.296;14.470;2023-03-20T03:39:06;49;39;
47081;PMS5003;33066;49.296;14.470;2023-03-20T03:41:29;86;77;
47081;PMS5003;33066;49.296;14.470;2023-03-20T03:43:56;52;44;
47081;PMS5003;33066;49.296;14.470;2023-03-20T03:46:21;48;46;
47081;PMS5003;33066;49.296;14.470;2023-03-20T03:48:46;67;55;
47081;PMS5003;33066;49.296;14.470;2023-03-20T03:51:13;54;46;
47081;PMS5003;33066;49.296;14.470;2023-03-20T03:53:39;61;59;
47081;PMS5003;33066;49.296;14.470;2023-03-20T03:56:03;111;100;
47081;PMS5003;33066;49.296;14.470;2023-03-20T03:58:28;69;62;
47081;PMS5003;33066;49.296;14.470;2023-03-20T04:00:52;77;64;
47081;PMS5003;33066;49.296;14.470;2023-03-20T04:03:19;62;59;
47081;PMS5003;33066;49.296;14.470;2023-03-20T04:05:43;50;46;
47081;PMS5003;33066;49.296;14.470;2023-03-20T04:08:08;65;61;
47081;PMS5003;33066;49.296;14.470;2023-03-20T04:13:00;80;77;
47081;PMS5003;33066;49.296;14.470;2023-03-20T04:15:25;68;62;
47081;PMS5003;33066;49.296;14.470;2023-03-20T04:17:50;57;52;
47081;PMS5003;33066;49.296;14.470;2023-03-20T04:20:16;68;64;
47081;PMS5003;33066;49.296;14.470;2023-03-20T04:22:41;91;79;
47081;PMS5003;33066;49.296;14.470;2023-03-20T04:25:09;68;55;
47081;PMS5003;33066;49.296;14.470;2023-03-20T04:27:32;70;61;
47081;PMS5003;33066;49.296;14.470;2023-03-20T04:29:58;54;46;
47081;PMS5003;33066;49.296;14.470;2023-03-20T04:32:23;62;54;
47081;PMS5003;33066;49.296;14.470;2023-03-20T04:34:48;75;65;
47081;PMS5003;33066;49.296;14.470;2023-03-20T04:37:14;60;53;
47081;PMS5003;33066;49.296;14.470;2023-03-20T04:39:39;75;72;
47081;PMS5003;33066;49.296;14.470;2023-03-20T04:42:06;78;76;
47081;PMS5003;33066;49.296;14.470;2023-03-20T04:44:30;93;86;
47081;PMS5003;33066;49.296;14.470;2023-03-20T04:46:56;112;103;
47081;PMS5003;33066;49.296;14.470;2023-03-20T04:49:22;89;83;
47081;PMS5003;33066;49.296;14.470;2023-03-20T04:51:47;86;73;
47081;PMS5003;33066;49.296;14.470;2023-03-20T04:54:13;86;76;
47081;PMS5003;33066;49.296;14.470;2023-03-20T04:56:38;78;69;
47081;PMS5003;33066;49.296;14.470;2023-03-20T04:59:04;75;67;
47081;PMS5003;33066;49.296;14.470;2023-03-20T05:01:29;64;56;
47081;PMS5003;33066;49.296;14.470;2023-03-20T05:03:55;81;80;
47081;PMS5003;33066;49.296;14.470;2023-03-20T05:06:19;89;81;
47081;PMS5003;33066;49.296;14.470;2023-03-20T05:08:46;96;87;
47081;PMS5003;33066;49.296;14.470;2023-03-20T05:11:10;84;78;
47081;PMS5003;33066;49.296;14.470;2023-03-20T05:13:35;102;92;
47081;PMS5003;33066;49.296;14.470;2023-03-20T05:16:02;81;77;
47081;PMS5003;33066;49.296;14.470;2023-03-20T05:18:25;64;61;
47081;PMS5003;33066;49.296;14.470;2023-03-20T05:20:51;65;64;
47081;PMS5003;33066;49.296;14.470;2023-03-20T05:23:16;87;85;
47081;PMS5003;33066;49.296;14.470;2023-03-20T05:25:43;63;58;
47081;PMS5003;33066;49.296;14.470;2023-03-20T05:28:09;71;70;
47081;PMS5003;33066;49.296;14.470;2023-03-20T05:30:33;87;79;
47081;PMS5003;33066;49.296;14.470;2023-03-20T05:32:58;68;64;
47081;PMS5003;33066;49.296;14.470;2023-03-20T05:35:24;71;60;
47081;PMS5003;33066;49.296;14.470;2023-03-20T05:37:49;68;58;
47081;PMS5003;33066;49.296;14.470;2023-03-20T05:40:15;82;79;
47081;PMS5003;33066;49.296;14.470;2023-03-20T05:42:40;80;74;
47081;PMS5003;33066;49.296;14.470;2023-03-20T05:45:06;87;77;
47081;PMS5003;33066;49.296;14.470;2023-03-20T05:47:31;71;66;
47081;PMS5003;33066;49.296;14.470;2023-03-20T05:49:56;67;64;
47081;PMS5003;33066;49.296;14.470;2023-03-20T05:52:22;46;45;
47081;PMS5003;33066;49.296;14.470;2023-03-20T05:54:47;41;39;
47081;PMS5003;33066;49.296;14.470;2023-03-20T05:57:13;47;37;
47081;PMS5003;33066;49.296;14.470;2023-03-20T05:59:38;39;33;
47081;PMS5003;33066;49.296;14.470;2023-03-20T06:02:03;44;34;
47081;PMS5003;33066;49.296;14.470;2023-03-20T06:04:29;58;50;
47081;PMS5003;33066;49.296;14.470;2023-03-20T06:06:55;68;59;
47081;PMS5003;33066;49.296;14.470;2023-03-20T06:09:20;77;72;
47081;PMS5003;33066;49.296;14.470;2023-03-20T06:11:45;59;54;
47081;PMS5003;33066;49.296;14.470;2023-03-20T06:14:10;61;58;
47081;PMS5003;33066;49.296;14.470;2023-03-20T06:16:36;34;33;
47081;PMS5003;33066;49.296;14.470;2023-03-20T06:19:00;51;45;
47081;PMS5003;33066;49.296;14.470;2023-03-20T06:21:26;54;47;
47081;PMS5003;33066;49.296;14.470;2023-03-20T06:23:54;78;68;
47081;PMS5003;33066;49.296;14.470;2023-03-20T06:26:18;45;41;
47081;PMS5003;33066;49.296;14.470;2023-03-20T06:28:43;75;66;
47081;PMS5003;33066;49.296;14.470;2023-03-20T06:31:08;72;57;
47081;PMS5003;33066;49.296;14.470;2023-03-20T06:33:34;56;53;
47081;PMS5003;33066;49.296;14.470;2023-03-20T06:36:00;70;61;
47081;PMS5003;33066;49.296;14.470;2023-03-20T06:38:25;72;53;
47081;PMS5003;33066;49.296;14.470;2023-03-20T06:40:51;67;54;
47081;PMS5003;33066;49.296;14.470;2023-03-20T06:43:16;57;48;
47081;PMS5003;33066;49.296;14.470;2023-03-20T06:45:42;68;61;
47081;PMS5003;33066;49.296;14.470;2023-03-20T06:48:07;59;54;
47081;PMS5003;33066;49.296;14.470;2023-03-20T06:50:32;67;58;
47081;PMS5003;33066;49.296;14.470;2023-03-20T06:52:58;63;50;
47081;PMS5003;33066;49.296;14.470;2023-03-20T06:55:23;57;52;
47081;PMS5003;33066;49.296;14.470;2023-03-20T06:57:49;63;50;
47081;PMS5003;33066;49.296;14.470;2023-03-20T07:00:15;50;47;
47081;PMS5003;33066;49.296;14.470;2023-03-20T07:02:40;47;41;
47081;PMS5003;33066;49.296;14.470;2023-03-20T07:05:06;64;51;
47081;PMS5003;33066;49.296;14.470;2023-03-20T07:07:31;43;43;
47081;PMS5003;33066;49.296;14.470;2023-03-20T07:09:56;47;39;
47081;PMS5003;33066;49.296;14.470;2023-03-20T07:12:21;46;38;
47081;PMS5003;33066;49.296;14.470;2023-03-20T07:14:48;48;38;
47081;PMS5003;33066;49.296;14.470;2023-03-20T07:17:12;45;36;
47081;PMS5003;33066;49.296;14.470;2023-03-20T07:19:39;27;25;
47081;PMS5003;33066;49.296;14.470;2023-03-20T07:22:04;40;38;
47081;PMS5003;33066;49.296;14.470;2023-03-20T07:24:29;45;40;
47081;PMS5003;33066;49.296;14.470;2023-03-20T07:26:55;45;40;
47081;PMS5003;33066;49.296;14.470;2023-03-20T07:29:20;52;38;
47081;PMS5003;33066;49.296;14.470;2023-03-20T07:31:46;47;41;
47081;PMS5003;33066;49.296;14.470;2023-03-20T07:34:11;42;37;
47081;PMS5003;33066;49.296;14.470;2023-03-20T07:36:37;46;37;
47081;PMS5003;33066;49.296;14.470;2023-03-20T07:39:03;41;37;
47081;PMS5003;33066;49.296;14.470;2023-03-20T07:41:28;47;29;
47081;PMS5003;33066;49.296;14.470;2023-03-20T07:43:53;50;44;
47081;PMS5003;33066;49.296;14.470;2023-03-20T07:46:19;55;46;
47081;PMS5003;33066;49.296;14.470;2023-03-20T07:48:44;41;37;
47081;PMS5003;33066;49.296;14.470;2023-03-20T07:51:10;56;47;
47081;PMS5003;33066;49.296;14.470;2023-03-20T07:53:36;35;32;
47081;PMS5003;33066;49.296;14.470;2023-03-20T07:56:01;40;37;
47081;PMS5003;33066;49.296;14.470;2023-03-20T07:58:27;36;30;
47081;PMS5003;33066;49.296;14.470;2023-03-20T08:00:52;36;32;
47081;PMS5003;33066;49.296;14.470;2023-03-20T08:03:18;32;31;
47081;PMS5003;33066;49.296;14.470;2023-03-20T08:05:43;35;31;
47081;PMS5003;33066;49.296;14.470;2023-03-20T08:08:08;32;30;
47081;PMS5003;33066;49.296;14.470;2023-03-20T08:10:34;36;29;
47081;PMS5003;33066;49.296;14.470;2023-03-20T08:13:00;39;32;
47081;PMS5003;33066;49.296;14.470;2023-03-20T08:15:25;37;32;
47081;PMS5003;33066;49.296;14.470;2023-03-20T08:17:50;37;31;
47081;PMS5003;33066;49.296;14.470;2023-03-20T08:20:15;38;34;
47081;PMS5003;33066;49.296;14.470;2023-03-20T08:22:41;43;38;
47081;PMS5003;33066;49.296;14.470;2023-03-20T08:25:07;45;42;
47081;PMS5003;33066;49.296;14.470;2023-03-20T08:27:31;32;28;
47081;PMS5003;33066;49.296;14.470;2023-03-20T08:29:57;39;36;
47081;PMS5003;33066;49.296;14.470;2023-03-20T08:32:22;26;24;
47081;PMS5003;33066;49.296;14.470;2023-03-20T08:34:47;40;36;
47081;PMS5003;33066;49.296;14.470;2023-03-20T08:37:13;36;34;
47081;PMS5003;33066;49.296;14.470;2023-03-20T08:39:38;39;32;
47081;PMS5003;33066;49.296;14.470;2023-03-20T08:42:03;42;37;
47081;PMS5003;33066;49.296;14.470;2023-03-20T08:44:29;39;33;
47081;PMS5003;33066;49.296;14.470;2023-03-20T08:46:54;40;39;
47081;PMS5003;33066;49.296;14.470;2023-03-20T08:49:20;41;35;
47081;PMS5003;33066;49.296;14.470;2023-03-20T08:51:45;44;41;
47081;PMS5003;33066;49.296;14.470;2023-03-20T08:54:11;30;25;
47081;PMS5003;33066;49.296;14.470;2023-03-20T08:56:36;39;35;
47081;PMS5003;33066;49.296;14.470;2023-03-20T08:59:02;36;30;
47081;PMS5003;33066;49.296;14.470;2023-03-20T09:01:27;31;29;
47081;PMS5003;33066;49.296;14.470;2023-03-20T09:03:52;38;34;
47081;PMS5003;33066;49.296;14.470;2023-03-20T09:06:18;34;30;
47081;PMS5003;33066;49.296;14.470;2023-03-20T09:08:44;26;23;
47081;PMS5003;33066;49.296;14.470;2023-03-20T09:11:10;36;35;
47081;PMS5003;33066;49.296;14.470;2023-03-20T09:13:36;34;29;
47081;PMS5003;33066;49.296;14.470;2023-03-20T09:16:00;39;37;
47081;PMS5003;33066;49.296;14.470;2023-03-20T09:18:26;37;29;
47081;PMS5003;33066;49.296;14.470;2023-03-20T09:20:52;34;27;
47081;PMS5003;33066;49.296;14.470;2023-03-20T09:23:17;34;27;
47081;PMS5003;33066;49.296;14.470;2023-03-20T09:25:43;31;28;
47081;PMS5003;33066;49.296;14.470;2023-03-20T09:28:08;30;26;
47081;PMS5003;33066;49.296;14.470;2023-03-20T09:30:34;22;19;
47081;PMS5003;33066;49.296;14.470;2023-03-20T09:32:59;23;21;
47081;PMS5003;33066;49.296;14.470;2023-03-20T09:35:24;14;13;
47081;PMS5003;33066;49.296;14.470;2023-03-20T09:37:50;19;13;
47081;PMS5003;33066;49.296;14.470;2023-03-20T09:40:19;18;14;
47081;PMS5003;33066;49.296;14.470;2023-03-20T09:42:42;13;11;
47081;PMS5003;33066;49.296;14.470;2023-03-20T09:45:08;13;11;
47081;PMS5003;33066;49.296;14.470;2023-03-20T09:47:33;8;8;
47081;PMS5003;33066;49.296;14.470;2023-03-20T09:50:02;12;11;
47081;PMS5003;33066;49.296;14.470;2023-03-20T09:52:25;12;11;
47081;PMS5003;33066;49.296;14.470;2023-03-20T09:54:49;9;9;
47081;PMS5003;33066;49.296;14.470;2023-03-20T09:57:16;10;10;
47081;PMS5003;33066;49.296;14.470;2023-03-20T09:59:39;9;6;
47081;PMS5003;33066;49.296;14.470;2023-03-20T10:02:05;12;9;
47081;PMS5003;33066;49.296;14.470;2023-03-20T10:04:30;8;8;
47081;PMS5003;33066;49.296;14.470;2023-03-20T10:06:55;6;6;
47081;PMS5003;33066;49.296;14.470;2023-03-20T10:09:21;10;9;
47081;PMS5003;33066;49.296;14.470;2023-03-20T10:11:51;8;8;
47081;PMS5003;33066;49.296;14.470;2023-03-20T10:14:15;9;7;
47081;PMS5003;33066;49.296;14.470;2023-03-20T10:16:40;9;9;
47081;PMS5003;33066;49.296;14.470;2023-03-20T10:19:05;7;7;
47081;PMS5003;33066;49.296;14.470;2023-03-20T10:21:28;10;10;
47081;PMS5003;33066;49.296;14.470;2023-03-20T10:23:53;9;7;
47081;PMS5003;33066;49.296;14.470;2023-03-20T10:26:18;8;8;
47081;PMS5003;33066;49.296;14.470;2023-03-20T10:28:45;11;10;
47081;PMS5003;33066;49.296;14.470;2023-03-20T10:31:15;10;10;
47081;PMS5003;33066;49.296;14.470;2023-03-20T10:33:38;10;10;
47081;PMS5003;33066;49.296;14.470;2023-03-20T10:36:05;11;10;
47081;PMS5003;33066;49.296;14.470;2023-03-20T10:38:28;9;9;
47081;PMS5003;33066;49.296;14.470;2023-03-20T10:40:51;9;9;
47081;PMS5003;33066;49.296;14.470;2023-03-20T10:43:17;19;14;
47081;PMS5003;33066;49.296;14.470;2023-03-20T10:45:42;45;34;
47081;PMS5003;33066;49.296;14.470;2023-03-20T10:48:11;237;177;
47081;PMS5003;33066;49.296;14.470;2023-03-20T10:50:34;19;15;
47081;PMS5003;33066;49.296;14.470;2023-03-20T10:52:57;8;8;
47081;PMS5003;33066;49.296;14.470;2023-03-20T10:55:23;6;6;
47081;PMS5003;33066;49.296;14.470;2023-03-20T10:57:49;8;7;
47081;PMS5003;33066;49.296;14.470;2023-03-20T11:00:13;5;5;
47081;PMS5003;33066;49.296;14.470;2023-03-20T11:02:38;7;5;
47081;PMS5003;33066;49.296;14.470;2023-03-20T11:05:06;5;4;
47081;PMS5003;33066;49.296;14.470;2023-03-20T11:07:31;5;5;
47081;PMS5003;33066;49.296;14.470;2023-03-20T11:12:19;8;8;
47081;PMS5003;33066;49.296;14.470;2023-03-20T11:14:44;3;3;
47081;PMS5003;33066;49.296;14.470;2023-03-20T11:17:10;6;6;
47081;PMS5003;33066;49.296;14.470;2023-03-20T11:19:36;5;5;
47081;PMS5003;33066;49.296;14.470;2023-03-20T11:22:06;5;4;
47081;PMS5003;33066;49.296;14.470;2023-03-20T11:24:26;1;1;
47081;PMS5003;33066;49.296;14.470;2023-03-20T11:26:50;4;4;
47081;PMS5003;33066;49.296;14.470;2023-03-20T11:29:17;1;1;
47081;PMS5003;33066;49.296;14.470;2023-03-20T11:31:40;5;4;
47081;PMS5003;33066;49.296;14.470;2023-03-20T11:34:09;5;5;
47081;PMS5003;33066;49.296;14.470;2023-03-20T11:36:31;3;3;
47081;PMS5003;33066;49.296;14.470;2023-03-20T11:38:58;5;5;
47081;PMS5003;33066;49.296;14.470;2023-03-20T11:41:23;6;4;
47081;PMS5003;33066;49.296;14.470;2023-03-20T11:43:46;17;17;
47081;PMS5003;33066;49.296;14.470;2023-03-20T11:46:11;24;21;
47081;PMS5003;33066;49.296;14.470;2023-03-20T11:48:37;10;9;
47081;PMS5003;33066;49.296;14.470;2023-03-20T11:51:02;6;6;
47081;PMS5003;33066;49.296;14.470;2023-03-20T11:53:28;7;7;
47081;PMS5003;33066;49.296;14.470;2023-03-20T11:55:58;6;6;
47081;PMS5003;33066;49.296;14.470;2023-03-20T11:58:17;8;6;
47081;PMS5003;33066;49.296;14.470;2023-03-20T12:00:46;6;5;
47081;PMS5003;33066;49.296;14.470;2023-03-20T12:05:32;6;6;
47081;PMS5003;33066;49.296;14.470;2023-03-20T12:07:59;5;5;
47081;PMS5003;33066;49.296;14.470;2023-03-20T12:10:22;7;7;
47081;PMS5003;33066;49.296;14.470;2023-03-20T12:12:48;6;4;
47081;PMS5003;33066;49.296;14.470;2023-03-20T12:15:14;4;4;
47081;PMS5003;33066;49.296;14.470;2023-03-20T12:17:39;6;5;
47081;PMS5003;33066;49.296;14.470;2023-03-20T12:20:06;5;3;
47081;PMS5003;33066;49.296;14.470;2023-03-20T12:22:29;4;4;
47081;PMS5003;33066;49.296;14.470;2023-03-20T12:24:55;5;5;
47081;PMS5003;33066;49.296;14.470;2023-03-20T12:27:20;4;4;
47081;PMS5003;33066;49.296;14.470;2023-03-20T12:29:45;4;4;
47081;PMS5003;33066;49.296;14.470;2023-03-20T12:32:09;8;6;
47081;PMS5003;33066;49.296;14.470;2023-03-20T12:34:35;5;5;
47081;PMS5003;33066;49.296;14.470;2023-03-20T12:36:59;5;5;
47081;PMS5003;33066;49.296;14.470;2023-03-20T12:39:26;3;3;
47081;PMS5003;33066;49.296;14.470;2023-03-20T12:41:54;4;4;
47081;PMS5003;33066;49.296;14.470;2023-03-20T12:44:19;7;6;
47081;PMS5003;33066;49.296;14.470;2023-03-20T12:46:42;4;2;
47081;PMS5003;33066;49.296;14.470;2023-03-20T12:49:07;3;2;
47081;PMS5003;33066;49.296;14.470;2023-03-20T12:51:33;3;3;
47081;PMS5003;33066;49.296;14.470;2023-03-20T12:53:59;3;3;
47081;PMS5003;33066;49.296;14.470;2023-03-20T12:56:23;4;4;
47081;PMS5003;33066;49.296;14.470;2023-03-20T12:58:46;6;5;
47081;PMS5003;33066;49.296;14.470;2023-03-20T13:01:12;7;5;
47081;PMS5003;33066;49.296;14.470;2023-03-20T13:06:01;3;3;
47081;PMS5003;33066;49.296;14.470;2023-03-20T13:08:35;4;4;
47081;PMS5003;33066;49.296;14.470;2023-03-20T13:10:52;3;3;
47081;PMS5003;33066;49.296;14.470;2023-03-20T13:13:17;3;3;
47081;PMS5003;33066;49.296;14.470;2023-03-20T13:15:48;2;2;
47081;PMS5003;33066;49.296;14.470;2023-03-20T13:18:07;6;5;
47081;PMS5003;33066;49.296;14.470;2023-03-20T13:20:32;4;4;
47081;PMS5003;33066;49.296;14.470;2023-03-20T13:22:59;2;2;
47081;PMS5003;33066;49.296;14.470;2023-03-20T13:25:28;2;2;
47081;PMS5003;33066;49.296;14.470;2023-03-20T13:27:48;1;1;
47081;PMS5003;33066;49.296;14.470;2023-03-20T13:30:13;3;1;
47081;PMS5003;33066;49.296;14.470;2023-03-20T13:32:40;1;1;
47081;PMS5003;33066;49.296;14.470;2023-03-20T13:35:05;5;2;
47081;PMS5003;33066;49.296;14.470;2023-03-20T13:37:28;4;2;
47081;PMS5003;33066;49.296;14.470;2023-03-20T13:39:58;2;2;
47081;PMS5003;33066;49.296;14.470;2023-03-20T13:42:18;4;4;
47081;PMS5003;33066;49.296;14.470;2023-03-20T13:44:42;3;3;
47081;PMS5003;33066;49.296;14.470;2023-03-20T13:47:10;3;3;
47081;PMS5003;33066;49.296;14.470;2023-03-20T13:49:34;7;7;
47081;PMS5003;33066;49.296;14.470;2023-03-20T13:51:59;23;20;
47081;PMS5003;33066;49.296;14.470;2023-03-20T13:54:33;8;8;
47081;PMS5003;33066;49.296;14.470;2023-03-20T13:56:51;7;6;
47081;PMS5003;33066;49.296;14.470;2023-03-20T14:01:43;6;6;
47081;PMS5003;33066;49.296;14.470;2023-03-20T14:04:07;33;27;
47081;PMS5003;33066;49.296;14.470;2023-03-20T14:06:43;33;32;
47081;PMS5003;33066;49.296;14.470;2023-03-20T14:08:57;26;22;
47081;PMS5003;33066;49.296;14.470;2023-03-20T14:11:26;133;115;
47081;PMS5003;33066;49.296;14.470;2023-03-20T14:13:48;5;4;
47081;PMS5003;33066;49.296;14.470;2023-03-20T14:16:14;6;6;
47081;PMS5003;33066;49.296;14.470;2023-03-20T14:18:38;2;2;
47081;PMS5003;33066;49.296;14.470;2023-03-20T14:21:09;26;23;
47081;PMS5003;33066;49.296;14.470;2023-03-20T14:23:32;26;24;
47081;PMS5003;33066;49.296;14.470;2023-03-20T14:25:55;3;3;
47081;PMS5003;33066;49.296;14.470;2023-03-20T14:28:23;9;9;
47081;PMS5003;33066;49.296;14.470;2023-03-20T14:30:45;5;5;
47081;PMS5003;33066;49.296;14.470;2023-03-20T14:35:36;5;5;
47081;PMS5003;33066;49.296;14.470;2023-03-20T14:38:08;5;5;
47081;PMS5003;33066;49.296;14.470;2023-03-20T14:40:27;9;8;
47081;PMS5003;33066;49.296;14.470;2023-03-20T14:42:52;5;5;
47081;PMS5003;33066;49.296;14.470;2023-03-20T14:47:43;3;3;
47081;PMS5003;33066;49.296;14.470;2023-03-20T14:50:08;10;10;
47081;PMS5003;33066;49.296;14.470;2023-03-20T14:52:34;6;5;
47081;PMS5003;33066;49.296;14.470;2023-03-20T14:55:12;7;5;
47081;PMS5003;33066;49.296;14.470;2023-03-20T14:57:26;66;58;
47081;PMS5003;33066;49.296;14.470;2023-03-20T14:59:48;3;2;
47081;PMS5003;33066;49.296;14.470;2023-03-20T15:04:39;13;12;
47081;PMS5003;33066;49.296;14.470;2023-03-20T15:07:05;5;3;
47081;PMS5003;33066;49.296;14.470;2023-03-20T15:09:30;3;3;
47081;PMS5003;33066;49.296;14.470;2023-03-20T15:11:55;5;5;
47081;PMS5003;33066;49.296;14.470;2023-03-20T15:14:21;2;2;
47081;PMS5003;33066;49.296;14.470;2023-03-20T15:16:45;4;4;
47081;PMS5003;33066;49.296;14.470;2023-03-20T15:19:14;4;4;
47081;PMS5003;33066;49.296;14.470;2023-03-20T15:21:36;4;4;
47081;PMS5003;33066;49.296;14.470;2023-03-20T15:24:01;6;5;
47081;PMS5003;33066;49.296;14.470;2023-03-20T15:26:26;4;4;
47081;PMS5003;33066;49.296;14.470;2023-03-20T15:28:54;4;4;
47081;PMS5003;33066;49.296;14.470;2023-03-20T15:31:18;3;3;
47081;PMS5003;33066;49.296;14.470;2023-03-20T15:33:42;5;5;
47081;PMS5003;33066;49.296;14.470;2023-03-20T15:36:07;6;5;
47081;PMS5003;33066;49.296;14.470;2023-03-20T15:38:32;5;4;
47081;PMS5003;33066;49.296;14.470;2023-03-20T15:40:57;6;4;
47081;PMS5003;33066;49.296;14.470;2023-03-20T15:43:23;5;5;
47081;PMS5003;33066;49.296;14.470;2023-03-20T15:45:48;6;6;
47081;PMS5003;33066;49.296;14.470;2023-03-20T15:48:13;4;4;
47081;PMS5003;33066;49.296;14.470;2023-03-20T15:50:38;9;9;
47081;PMS5003;33066;49.296;14.470;2023-03-20T15:53:03;6;4;
47081;PMS5003;33066;49.296;14.470;2023-03-20T15:55:28;4;4;
47081;PMS5003;33066;49.296;14.470;2023-03-20T15:57:54;4;4;
47081;PMS5003;33066;49.296;14.470;2023-03-20T16:00:20;25;23;
47081;PMS5003;33066;49.296;14.470;2023-03-20T16:02:44;5;5;
47081;PMS5003;33066;49.296;14.470;2023-03-20T16:05:10;3;3;
47081;PMS5003;33066;49.296;14.470;2023-03-20T16:07:36;5;5;
47081;PMS5003;33066;49.296;14.470;2023-03-20T16:10:01;5;5;
47081;PMS5003;33066;49.296;14.470;2023-03-20T16:12:26;6;6;
47081;PMS5003;33066;49.296;14.470;2023-03-20T16:14:51;14;8;
47081;PMS5003;33066;49.296;14.470;2023-03-20T16:17:17;10;7;
47081;PMS5003;33066;49.296;14.470;2023-03-20T16:19:42;3;3;
47081;PMS5003;33066;49.296;14.470;2023-03-20T16:22:10;7;7;
47081;PMS5003;33066;49.296;14.470;2023-03-20T16:24:33;6;5;
47081;PMS5003;33066;49.296;14.470;2023-03-20T16:26:58;3;3;